Time;durP1;ratioP1;P1;durP2;ratioP2;P2;SDS_P1;SDS_P2;PMS_P1;PMS_P2;Temp;Humidity;BMP_temperature;BMP_pressure;BME280_temperature;BME280_humidity;BME280_pressure;Samples;Min_cycle;Max_cycle;Signal;HPM_P1;HPM_P2
2022/02/24 00:01:58;;;;;;;;;;;;;;;3.47;59.38;100798.06;4290258;33;20346;-87
2022/02/24 00:04:24;;;;;;;;;;;;;;;3.14;59.35;100801.91;4290366;33;19992;-87
2022/02/24 00:06:49;;;;;;;;;;;;;;;3.23;59.35;100809.75;4290152;33;20004;-87
2022/02/24 00:09:14;;;;;;;;;;;;;;;3.10;59.35;100804.41;4289479;33;25556;-87
2022/02/24 00:11:39;;;;;;;;;;;;;;;2.86;59.33;100808.34;4303340;33;19968;-88
2022/02/24 00:14:05;;;;;;;;;;;;;;;2.75;59.33;100805.56;4290187;33;20016;-87
2022/02/24 00:16:30;;;;;;;;;;;;;;;2.79;59.33;100801.34;4292689;33;19989;-87
2022/02/24 00:18:55;;;;;;;;;;;;;;;2.96;59.35;100796.47;4303725;33;19988;-86
2022/02/24 00:21:21;;;;;;;;;;;;;;;2.84;59.33;100797.16;4303587;33;20016;-86
2022/02/24 00:23:46;;;;;;;;;;;;;;;2.86;59.33;100792.91;4290192;33;20011;-86
2022/02/24 00:26:12;;;;;;;;;;;;;;;2.96;59.35;100796.47;4289952;33;20575;-86
2022/02/24 00:28:37;;;;;;;;;;;;;;;3.00;59.34;100788.81;4302921;33;22583;-85
2022/02/24 00:31:02;;;;;;;;;;;;;;;2.98;59.34;100781.94;4289623;33;22350;-86
2022/02/24 00:33:28;;;;;;;;;;;;;;;3.13;59.35;100784.72;4314079;33;19995;-86
2022/02/24 00:35:53;;;;;;;;;;;;;;;3.08;59.35;100779.53;4302844;33;27586;-86
2022/02/24 00:38:20;;;;;;;;;;;;;;;3.02;59.35;100787.13;4303609;33;21954;-86
2022/02/24 00:40:45;;;;;;;;;;;;;;;3.12;59.35;100774.44;4290481;33;20033;-86
2022/02/24 00:43:10;;;;;;;;;;;;;;;2.97;59.35;100782.75;4303035;33;22211;-86
2022/02/24 00:45:36;;;;;;;;;;;;;;;2.97;59.34;100778.50;4303286;33;20008;-87
2022/02/24 00:48:01;;;;;;;;;;;;;;;2.91;59.34;100786.13;4303376;33;20048;-86
2022/02/24 00:50:26;;;;;;;;;;;;;;;2.83;59.34;100782.53;4314081;33;20035;-87
2022/02/24 00:52:56;;;;;;;;;;;;;;;2.76;59.33;100789.28;4303454;33;19984;-87
2022/02/24 00:55:21;;;;;;;;;;;;;;;2.69;59.33;100795.19;4290607;33;20352;-88
2022/02/24 00:57:46;;;;;;;;;;;;;;;2.98;59.34;100787.06;4267673;33;789835;-87
2022/02/24 01:00:13;;;;;;;;;;;;;;;2.95;59.35;100782.75;4293235;33;20060;-87
2022/02/24 01:02:38;;;;;;;;;;;;;;;2.95;59.35;100769.88;4315356;33;20002;-88
2022/02/24 01:05:04;;;;;;;;;;;;;;;2.93;59.34;100778.44;4290218;33;19981;-87
2022/02/24 01:07:29;;;;;;;;;;;;;;;2.83;59.33;100774.81;4290294;33;20019;-86
2022/02/24 01:09:54;;;;;;;;;;;;;;;2.75;59.33;100779.00;4289801;33;20278;-87
2022/02/24 01:12:19;;;;;;;;;;;;;;;2.84;59.34;100781.72;4313853;33;20953;-87
2022/02/24 01:14:45;;;;;;;;;;;;;;;2.83;59.33;100781.69;4289755;33;20071;-88
2022/02/24 01:17:10;;;;;;;;;;;;;;;2.84;59.34;100793.69;4290008;33;20357;-87
2022/02/24 01:19:35;;;;;;;;;;;;;;;2.74;59.33;100801.25;4303460;33;19989;-87
2022/02/24 01:22:00;;;;;;;;;;;;;;;2.60;59.32;100800.19;4289452;33;30933;-88
2022/02/24 01:24:26;;;;;;;;;;;;;;;2.57;59.32;100805.25;4303393;33;19984;-86
2022/02/24 01:26:51;;;;;;;;;;;;;;;2.69;59.33;100799.47;4290275;33;20028;-88
2022/02/24 01:29:16;;;;;;;;;;;;;;;2.61;59.32;100801.06;4289460;33;20008;-88
2022/02/24 01:31:41;;;;;;;;;;;;;;;2.67;59.33;100807.16;4289881;33;20012;-87
2022/02/24 01:34:07;;;;;;;;;;;;;;;2.60;59.32;100804.44;4290074;33;20040;-87
2022/02/24 01:36:32;;;;;;;;;;;;;;;2.63;59.32;100805.38;4289684;33;20015;-87
2022/02/24 01:38:57;;;;;;;;;;;;;;;2.73;59.33;100807.25;4289772;33;20035;-86
2022/02/24 01:41:22;;;;;;;;;;;;;;;2.70;59.33;100814.06;4289516;33;20016;-87
2022/02/24 01:43:48;;;;;;;;;;;;;;;2.75;59.33;100804.69;4288813;33;30705;-87
2022/02/24 01:46:13;;;;;;;;;;;;;;;2.49;59.31;100811.09;4289602;33;20265;-87
2022/02/24 01:48:38;;;;;;;;;;;;;;;2.44;59.32;100805.88;4289625;33;19988;-87
2022/02/24 01:51:04;;;;;;;;;;;;;;;2.42;59.30;100807.56;4302763;33;19989;-87
2022/02/24 01:53:29;;;;;;;;;;;;;;;2.60;59.32;100802.75;4290113;33;20001;-88
2022/02/24 01:55:54;;;;;;;;;;;;;;;2.56;59.32;100808.66;4290855;33;20036;-87
2022/02/24 01:58:20;;;;;;;;;;;;;;;2.58;59.32;100804.41;4289353;33;20596;-87
2022/02/24 02:00:45;;;;;;;;;;;;;;;2.69;59.33;100815.75;4289231;33;20019;-86
2022/02/24 02:03:10;;;;;;;;;;;;;;;2.31;59.31;100799.66;4289414;33;20015;-88
2022/02/24 02:05:36;;;;;;;;;;;;;;;2.31;59.30;100801.34;4301132;33;20023;-87
2022/02/24 02:08:03;;;;;;;;;;;;;;;2.22;59.30;100801.19;4289383;33;20032;-87
2022/02/24 02:10:28;;;;;;;;;;;;;;;2.19;59.29;100789.16;4289336;33;19981;-87
2022/02/24 02:12:54;;;;;;;;;;;;;;;2.01;59.29;100793.94;4288415;33;29179;-86
2022/02/24 02:15:19;;;;;;;;;;;;;;;2.06;59.28;100794.91;4294500;33;20023;-87
2022/02/24 02:17:44;;;;;;;;;;;;;;;2.06;59.29;100800.91;4301904;33;19968;-87
2022/02/24 02:20:10;;;;;;;;;;;;;;;2.03;59.28;100799.97;4301742;33;20008;-87
2022/02/24 02:22:35;;;;;;;;;;;;;;;1.98;59.29;100799.91;4296750;33;20015;-88
2022/02/24 02:25:02;;;;;;;;;;;;;;;2.08;59.29;100795.78;4296263;33;27120;-87
2022/02/24 02:27:27;;;;;;;;;;;;;;;1.85;59.28;100797.91;4315938;33;20330;-87
2022/02/24 02:29:52;;;;;;;;;;;;;;;1.91;59.28;100799.75;4289695;33;20019;-86
2022/02/24 02:32:17;;;;;;;;;;;;;;;1.88;59.28;100800.53;4289337;33;19977;-87
2022/02/24 02:34:43;;;;;;;;;;;;;;;1.84;59.28;100796.19;4288952;33;20011;-87
2022/02/24 02:37:08;;;;;;;;;;;;;;;1.96;59.28;100793.88;4288842;33;20281;-86
2022/02/24 02:39:33;;;;;;;;;;;;;;;2.03;59.28;100788.00;4288414;33;23612;-86
2022/02/24 02:41:58;;;;;;;;;;;;;;;1.65;59.27;100787.22;4290926;33;20057;-87
2022/02/24 02:44:24;;;;;;;;;;;;;;;1.54;59.26;100784.47;4290631;33;20516;-87
2022/02/24 02:46:49;;;;;;;;;;;;;;;1.56;59.26;100784.50;4290838;33;19969;-88
2022/02/24 02:49:14;;;;;;;;;;;;;;;1.63;59.27;100786.34;4290743;33;20008;-87
2022/02/24 02:51:40;;;;;;;;;;;;;;;1.60;59.26;100787.97;4292363;33;20282;-88
2022/02/24 02:54:06;;;;;;;;;;;;;;;1.60;59.26;100780.28;4290911;33;20527;-87
2022/02/24 02:56:31;;;;;;;;;;;;;;;1.66;59.26;100783.00;4290972;33;20246;-88
2022/02/24 02:58:56;;;;;;;;;;;;;;;1.59;59.26;100781.97;4290720;33;20368;-87
2022/02/24 03:01:21;;;;;;;;;;;;;;;1.56;59.26;100783.63;4290684;33;20314;-88
2022/02/24 03:03:46;;;;;;;;;;;;;;;1.48;59.26;100784.34;4291262;33;20011;-88
2022/02/24 03:06:12;;;;;;;;;;;;;;;1.27;59.25;100798.41;4291394;33;20023;-88
2022/02/24 03:08:37;;;;;;;;;;;;;;;1.32;59.24;100787.41;4290763;33;20378;-88
2022/02/24 03:11:02;;;;;;;;;;;;;;;1.44;59.25;100790.25;4301617;33;20255;-87
2022/02/24 03:13:27;;;;;;;;;;;;;;;1.44;59.25;100786.81;4305960;33;20318;-88
2022/02/24 03:15:53;;;;;;;;;;;;;;;1.49;59.26;100786.06;4290732;33;20369;-88
2022/02/24 03:18:18;;;;;;;;;;;;;;;1.54;59.25;100789.59;4290868;33;19996;-88
2022/02/24 03:20:43;;;;;;;;;;;;;;;1.43;59.25;100787.66;4290776;33;20341;-87
2022/02/24 03:23:09;;;;;;;;;;;;;;;1.11;59.24;100792.91;4305736;33;19995;-87
2022/02/24 03:25:34;;;;;;;;;;;;;;;1.15;59.24;100788.72;4303551;33;19993;-88
2022/02/24 03:27:59;;;;;;;;;;;;;;;1.21;59.24;100792.31;4291118;33;20322;-87
2022/02/24 03:30:25;;;;;;;;;;;;;;;1.31;59.24;100801.06;4302533;33;20090;-87
2022/02/24 03:32:51;;;;;;;;;;;;;;;1.35;59.25;100789.16;4290657;33;20000;-87
2022/02/24 03:35:16;;;;;;;;;;;;;;;1.14;59.24;100792.97;4303940;33;20028;-86
2022/02/24 03:37:41;;;;;;;;;;;;;;;1.01;59.22;100790.13;4290800;33;19988;-87
2022/02/24 03:40:07;;;;;;;;;;;;;;;1.14;59.23;100785.28;4290840;33;20354;-86
2022/02/24 03:42:32;;;;;;;;;;;;;;;1.06;59.23;100791.09;4291094;33;20340;-86
2022/02/24 03:44:58;;;;;;;;;;;;;;;1.03;59.23;100791.00;4291572;33;20227;-87
2022/02/24 03:47:23;;;;;;;;;;;;;;;1.16;59.23;100796.44;4293680;33;20012;-86
2022/02/24 03:49:48;;;;;;;;;;;;;;;1.27;59.24;100799.25;4290738;33;20004;-88
2022/02/24 03:52:14;;;;;;;;;;;;;;;1.02;59.22;100796.97;4290354;33;20012;-87
2022/02/24 03:54:39;;;;;;;;;;;;;;;1.05;59.23;100790.22;4290375;33;20019;-87
2022/02/24 03:57:04;;;;;;;;;;;;;;;1.09;59.23;100789.44;4290481;33;20028;-87
2022/02/24 03:59:30;;;;;;;;;;;;;;;1.02;59.22;100787.59;4290313;33;20609;-87
2022/02/24 04:01:56;;;;;;;;;;;;;;;0.94;59.22;100789.09;4302452;33;20128;-86
2022/02/24 04:04:21;;;;;;;;;;;;;;;0.84;59.22;100797.41;4290820;33;20340;-88
2022/02/24 04:06:46;;;;;;;;;;;;;;;1.07;59.23;100800.50;4290620;33;20004;-88
2022/02/24 04:09:12;;;;;;;;;;;;;;;1.06;59.23;100793.66;4292000;33;20595;-88
2022/02/24 04:11:37;;;;;;;;;;;;;;;1.02;59.23;100786.72;4290163;33;20023;-87
2022/02/24 04:14:02;;;;;;;;;;;;;;;1.05;59.23;100782.53;4290388;33;20057;-89
2022/02/24 04:16:27;;;;;;;;;;;;;;;1.32;59.24;100781.41;4290518;33;19972;-89
2022/02/24 04:18:53;;;;;;;;;;;;;;;0.98;59.23;100775.53;4303891;33;19996;-88
2022/02/24 04:21:18;;;;;;;;;;;;;;;1.06;59.23;100762.87;4290785;33;19988;-87
2022/02/24 04:23:43;;;;;;;;;;;;;;;1.05;59.24;100771.41;4290634;33;20054;-88
2022/02/24 04:26:08;;;;;;;;;;;;;;;1.07;59.23;100774.88;4290046;33;23313;-88
2022/02/24 04:28:34;;;;;;;;;;;;;;;1.04;59.24;100774.81;4290573;33;20789;-86
2022/02/24 04:30:59;;;;;;;;;;;;;;;0.90;59.23;100764.22;4290871;33;20003;-86
2022/02/24 04:33:25;;;;;;;;;;;;;;;1.13;59.23;100767.31;4289960;33;20043;-86
2022/02/24 04:35:50;;;;;;;;;;;;;;;1.24;59.24;100768.41;4290163;33;20020;-85
2022/02/24 04:38:15;;;;;;;;;;;;;;;1.15;59.24;100761.38;4303425;33;20020;-86
2022/02/24 04:40:40;;;;;;;;;;;;;;;1.19;59.24;100763.19;4301538;33;32296;-86
2022/02/24 04:43:06;;;;;;;;;;;;;;;1.11;59.24;100774.09;4290099;33;20028;-86
2022/02/24 04:45:31;;;;;;;;;;;;;;;1.18;59.23;100765.69;4290115;33;20251;-86
2022/02/24 04:47:56;;;;;;;;;;;;;;;1.13;59.23;100768.16;4289972;33;20000;-87
2022/02/24 04:50:21;;;;;;;;;;;;;;;1.08;59.23;100776.59;4290007;33;20022;-87
2022/02/24 04:52:47;;;;;;;;;;;;;;;0.86;59.22;100776.09;4289799;33;20308;-87
2022/02/24 04:55:12;;;;;;;;;;;;;;;0.86;59.21;100780.34;4290149;33;20314;-87
2022/02/24 04:57:37;;;;;;;;;;;;;;;0.99;59.23;100772.13;4303371;33;20012;-87
2022/02/24 05:00:03;;;;;;;;;;;;;;;1.27;59.25;100776.19;4314612;33;20009;-85
2022/02/24 05:02:29;;;;;;;;;;;;;;;0.86;59.21;100786.34;4289231;33;20515;-85
2022/02/24 05:04:54;;;;;;;;;;;;;;;0.80;59.21;100785.34;4290248;33;19991;-85
2022/02/24 05:07:19;;;;;;;;;;;;;;;0.75;59.22;100785.25;4289823;33;20363;-86
2022/02/24 05:09:44;;;;;;;;;;;;;;;0.75;59.22;100785.25;4303245;33;20007;-85
2022/02/24 05:12:09;;;;;;;;;;;;;;;0.74;59.21;100780.09;4313614;33;27908;-85
2022/02/24 05:14:35;;;;;;;;;;;;;;;0.84;59.22;100769.22;4302751;33;28350;-86
2022/02/24 05:17:00;;;;;;;;;;;;;;;0.85;59.22;100782.06;4290475;33;20008;-87
2022/02/24 05:19:25;;;;;;;;;;;;;;;0.74;59.21;100793.75;4290365;33;20422;-87
2022/02/24 05:21:50;;;;;;;;;;;;;;;0.88;59.21;100788.94;4290058;33;20315;-87
2022/02/24 05:24:16;;;;;;;;;;;;;;;0.94;59.22;100789.09;4313992;33;19999;-87
2022/02/24 05:26:41;;;;;;;;;;;;;;;0.97;59.23;100789.19;4290944;33;20017;-88
2022/02/24 05:29:06;;;;;;;;;;;;;;;0.85;59.22;100789.75;4289545;33;28687;-88
2022/02/24 05:31:32;;;;;;;;;;;;;;;0.74;59.21;100801.44;4314032;33;20024;-88
2022/02/24 05:33:57;;;;;;;;;;;;;;;0.68;59.21;100805.53;4289947;33;20021;-87
2022/02/24 05:36:22;;;;;;;;;;;;;;;0.82;59.22;100804.19;4289683;33;20027;-86
2022/02/24 05:38:48;;;;;;;;;;;;;;;0.86;59.22;100803.44;4289529;33;20052;-88
2022/02/24 05:41:13;;;;;;;;;;;;;;;0.77;59.21;100804.09;4313573;33;20017;-87
2022/02/24 05:43:38;;;;;;;;;;;;;;;0.81;59.21;100808.44;4289870;33;20008;-87
2022/02/24 05:46:03;;;;;;;;;;;;;;;0.85;59.22;100797.44;4290472;33;20715;-87
2022/02/24 05:48:29;;;;;;;;;;;;;;;0.74;59.20;100805.72;4314815;33;19996;-86
2022/02/24 05:50:54;;;;;;;;;;;;;;;0.64;59.21;100809.72;4289360;33;27233;-88
2022/02/24 05:53:19;;;;;;;;;;;;;;;0.79;59.22;100811.81;4302965;33;20016;-87
2022/02/24 05:55:44;;;;;;;;;;;;;;;0.84;59.22;100812.78;4289299;33;20033;-88
2022/02/24 05:58:10;;;;;;;;;;;;;;;0.80;59.21;100814.41;4302213;33;20302;-87
2022/02/24 06:00:35;;;;;;;;;;;;;;;0.97;59.23;100808.81;4313141;33;20016;-88
2022/02/24 06:03:00;;;;;;;;;;;;;;;0.95;59.22;100803.66;4289136;33;20282;-87
2022/02/24 06:05:25;;;;;;;;;;;;;;;0.68;59.21;100798.72;4313360;33;19996;-87
2022/02/24 06:07:51;;;;;;;;;;;;;;;0.85;59.22;100794.00;4289055;33;20815;-87
2022/02/24 06:10:16;;;;;;;;;;;;;;;1.03;59.24;100791.88;4288876;33;19985;-88
2022/02/24 06:12:41;;;;;;;;;;;;;;;1.21;59.24;100783.75;4288726;33;20014;-87
2022/02/24 06:15:07;;;;;;;;;;;;;;;1.29;59.25;100783.91;4290175;33;20024;-87
2022/02/24 06:17:32;;;;;;;;;;;;;;;1.26;59.24;100782.13;4290866;33;20360;-86
2022/02/24 06:19:57;;;;;;;;;;;;;;;1.33;59.24;100785.69;4290887;33;20254;-86
2022/02/24 06:22:23;;;;;;;;;;;;;;;1.36;59.25;100786.63;4305929;33;19968;-87
2022/02/24 06:24:49;;;;;;;;;;;;;;;1.61;59.26;100787.16;4290897;33;20338;-86
2022/02/24 06:27:14;;;;;;;;;;;;;;;1.60;59.26;100785.41;4291403;33;20035;-89
2022/02/24 06:29:39;;;;;;;;;;;;;;;1.52;59.26;100780.13;4291530;33;19988;-89
2022/02/24 06:32:05;;;;;;;;;;;;;;;1.62;59.26;100778.59;4291053;33;20295;-88
2022/02/24 06:34:30;;;;;;;;;;;;;;;1.70;59.27;100780.53;4290664;33;20273;-87
2022/02/24 06:36:56;;;;;;;;;;;;;;;1.86;59.28;100779.09;4304040;33;20004;-88
2022/02/24 06:39:21;;;;;;;;;;;;;;;1.74;59.27;100776.31;4290664;33;20036;-88
2022/02/24 06:41:46;;;;;;;;;;;;;;;2.00;59.29;100777.69;4290784;33;20032;-87
2022/02/24 06:44:14;;;;;;;;;;;;;;;2.03;59.29;100776.88;4293003;33;20004;-88
2022/02/24 06:46:39;;;;;;;;;;;;;;;2.15;59.30;100771.97;4291360;33;20022;-87
2022/02/24 06:49:04;;;;;;;;;;;;;;;2.29;59.31;100767.94;4292392;33;19985;-88
2022/02/24 06:51:30;;;;;;;;;;;;;;;2.45;59.32;100772.50;4290889;33;19999;-87
2022/02/24 06:53:55;;;;;;;;;;;;;;;2.48;59.31;100769.13;4290900;33;19993;-88
2022/02/24 06:56:21;;;;;;;;;;;;;;;2.66;59.33;100766.88;4290982;33;20018;-88
2022/02/24 06:58:47;;;;;;;;;;;;;;;2.76;59.33;100773.88;4304322;33;20028;-88
2022/02/24 07:01:12;;;;;;;;;;;;;;;2.81;59.33;100773.94;4303162;33;19980;-89
2022/02/24 07:03:37;;;;;;;;;;;;;;;2.93;59.34;100773.28;4291288;33;20299;-88
2022/02/24 07:06:02;;;;;;;;;;;;;;;3.12;59.35;100762.44;4310364;33;20049;-87
2022/02/24 07:08:28;;;;;;;;;;;;;;;3.46;59.38;100762.87;4302593;33;19981;-88
2022/02/24 07:10:53;;;;;;;;;;;;;;;3.68;59.38;100762.31;4315737;33;21208;-88
2022/02/24 07:13:18;;;;;;;;;;;;;;;3.82;59.38;100763.34;4309883;33;19980;-88
2022/02/24 07:15:43;;;;;;;;;;;;;;;3.96;59.40;100768.63;4320628;33;20007;-89
2022/02/24 07:18:09;;;;;;;;;;;;;;;4.21;59.42;100765.47;4291648;33;20020;-88
2022/02/24 07:20:34;;;;;;;;;;;;;;;4.40;59.42;100761.34;4291472;33;19980;-89
2022/02/24 07:22:59;;;;;;;;;;;;;;;4.39;59.42;100762.19;4290866;33;20004;-88
2022/02/24 07:25:24;;;;;;;;;;;;;;;4.68;59.44;100759.00;4290368;33;20008;-89
2022/02/24 07:27:50;;;;;;;;;;;;;;;4.70;59.43;100760.75;4291119;33;19992;-89
2022/02/24 07:30:15;;;;;;;;;;;;;;;4.89;59.45;100761.75;4290910;33;20008;-89
2022/02/24 07:32:40;;;;;;;;;;;;;;;4.98;59.45;100754.09;4293613;33;20004;-88
2022/02/24 07:35:06;;;;;;;;;;;;;;;5.15;59.46;100749.88;4290834;33;20067;-90
2022/02/24 07:37:31;;;;;;;;;;;;;;;5.39;59.49;100756.03;4290806;33;20051;-88
2022/02/24 07:39:56;;;;;;;;;;;;;;;5.48;59.48;100748.34;4291739;33;22364;-89
2022/02/24 07:42:21;;;;;;;;;;;;;;;5.61;59.49;100744.94;4290841;33;20000;-88
2022/02/24 07:44:47;;;;;;;;;;;;;;;5.65;59.49;100744.09;4290713;33;20001;-88
2022/02/24 07:47:12;;;;;;;;;;;;;;;5.84;59.51;100739.88;4290660;33;19980;-88
2022/02/24 07:49:38;;;;;;;;;;;;;;;6.09;59.52;100744.28;4290618;33;20005;-88
2022/02/24 07:52:03;;;;;;;;;;;;;;;6.09;59.52;100744.28;4290610;33;20012;-89
2022/02/24 07:54:28;;;;;;;;;;;;;;;6.23;59.53;100741.72;4289442;33;20052;-89
2022/02/24 07:56:54;;;;;;;;;;;;;;;6.33;59.53;100743.44;4290194;33;20024;-88
2022/02/24 07:59:20;;;;;;;;;;;;;;;6.39;59.53;100733.13;4290015;33;19992;-88
2022/02/24 08:01:45;;;;;;;;;;;;;;;6.52;59.55;100733.97;4291464;33;19984;-87
2022/02/24 08:04:10;;;;;;;;;;;;;;;6.53;59.54;100735.72;4289770;33;24542;-89
2022/02/24 08:06:36;;;;;;;;;;;;;;;6.76;59.55;100733.13;4290394;33;20008;-88
2022/02/24 08:09:02;;;;;;;;;;;;;;;6.90;59.57;100730.53;4290231;33;20016;-88
2022/02/24 08:11:27;;;;;;;;;;;;;;;6.97;59.57;100732.22;4290164;33;19992;-89
2022/02/24 08:13:52;;;;;;;;;;;;;;;7.15;59.57;100727.03;4290478;33;20353;-88
2022/02/24 08:16:17;;;;;;;;;;;;;;;7.30;59.58;100719.19;4290175;33;19980;-89
2022/02/24 08:18:43;;;;;;;;;;;;;;;7.38;59.58;100720.03;4303780;33;19985;-88
2022/02/24 08:21:08;;;;;;;;;;;;;;;7.48;59.60;100704.44;4290333;33;20354;-87
2022/02/24 08:23:33;;;;;;;;;;;;;;;7.63;59.61;100705.25;4303679;33;24310;-88
2022/02/24 08:25:58;;;;;;;;;;;;;;;7.79;59.61;100703.44;4305395;33;20036;-88
2022/02/24 08:28:24;;;;;;;;;;;;;;;7.73;59.61;100700.88;4292469;33;19968;-88
2022/02/24 08:30:49;;;;;;;;;;;;;;;8.02;59.63;100698.09;4293334;33;20044;-88
2022/02/24 08:33:14;;;;;;;;;;;;;;;8.13;59.63;100693.72;4295952;33;19989;-88
2022/02/24 08:35:40;;;;;;;;;;;;;;;8.28;59.64;100696.22;4299903;33;20030;-88
2022/02/24 08:38:05;;;;;;;;;;;;;;;8.50;59.65;100689.13;4290863;33;19981;-87
2022/02/24 08:40:30;;;;;;;;;;;;;;;8.57;59.65;100677.00;4290799;33;20346;-88
2022/02/24 08:42:56;;;;;;;;;;;;;;;8.79;59.67;100682.84;4289961;33;20024;-88
2022/02/24 08:45:21;;;;;;;;;;;;;;;8.97;59.68;100682.62;4290066;33;19996;-87
2022/02/24 08:47:46;;;;;;;;;;;;;;;9.01;59.68;100684.34;4290101;33;20010;-88
2022/02/24 08:50:11;;;;;;;;;;;;;;;9.11;59.68;100685.94;4303338;33;20004;-88
2022/02/24 08:52:37;;;;;;;;;;;;;;;9.17;59.69;100679.81;4289989;33;20000;-88
2022/02/24 08:55:02;;;;;;;;;;;;;;;9.37;59.71;100677.00;4289968;33;20007;-88
2022/02/24 09:00:12;;;;;;;;;;;;;;;9.71;59.71;100667.03;4292035;33;20028;-88
2022/02/24 09:02:37;;;;;;;;;;;;;;;9.68;59.72;100670.50;4289962;33;20016;-87
2022/02/24 09:05:03;;;;;;;;;;;;;;;9.75;59.72;100661.75;4290256;33;20026;-87
2022/02/24 09:07:28;;;;;;;;;;;;;;;9.91;59.73;100659.78;4314130;33;19985;-88
2022/02/24 09:09:53;;;;;;;;;;;;;;;9.94;59.74;100662.38;4303101;33;20000;-88
2022/02/24 09:12:18;;;;;;;;;;;;;;;10.10;59.75;100661.22;4302847;33;20300;-86
2022/02/24 09:14:43;;;;;;;;;;;;;;;10.00;59.74;100654.47;4289197;33;26818;-87
2022/02/24 09:17:10;;;;;;;;;;;;;;;10.27;59.76;100657.53;4289885;33;20000;-88
2022/02/24 09:19:35;;;;;;;;;;;;;;;10.44;59.76;100655.53;4290030;33;20282;-88
2022/02/24 09:22:01;;;;;;;;;;;;;;;10.51;59.77;100657.13;4289722;33;20008;-88
2022/02/24 09:24:26;;;;;;;;;;;;;;;10.43;59.76;100659.03;4289806;33;20029;-88
2022/02/24 09:26:51;;;;;;;;;;;;;;;10.68;59.77;100642.06;4289779;33;20011;-88
2022/02/24 09:29:17;;;;;;;;;;;;;;;10.84;59.79;100642.62;4302726;33;20311;-87
2022/02/24 09:31:42;;;;;;;;;;;;;;;10.82;59.78;100643.56;4289692;33;20012;-88
2022/02/24 09:34:07;;;;;;;;;;;;;;;11.02;59.80;100638.81;4289534;33;20310;-88
2022/02/24 09:36:32;;;;;;;;;;;;;;;11.03;59.80;100640.53;4289613;33;19980;-88
2022/02/24 09:38:58;;;;;;;;;;;;;;;10.85;59.79;100641.75;4313642;33;20063;-87
2022/02/24 09:41:23;;;;;;;;;;;;;;;11.12;59.80;100637.78;4289724;33;20012;-88
2022/02/24 09:43:49;;;;;;;;;;;;;;;11.19;59.80;100630.69;4303138;33;19999;-88
2022/02/24 09:46:14;;;;;;;;;;;;;;;11.29;59.80;100627.84;4303178;33;20119;-88
2022/02/24 09:48:42;;;;;;;;;;;;;;;11.51;59.81;100616.94;4289910;33;20013;-89
2022/02/24 09:51:07;;;;;;;;;;;;;;;11.66;59.83;100611.41;4304844;33;20301;-88
2022/02/24 09:53:34;;;;;;;;;;;;;;;11.69;59.83;100617.41;4304732;33;19976;-88
2022/02/24 09:55:59;;;;;;;;;;;;;;;11.86;59.85;100616.22;4291697;33;19980;-88
2022/02/24 09:58:25;;;;;;;;;;;;;;;11.97;59.84;100608.97;4291469;33;20022;-88
2022/02/24 10:00:50;;;;;;;;;;;;;;;12.07;59.85;100617.44;4304742;33;20428;-89
2022/02/24 10:03:22;;;;;;;;;;;;;;;12.10;59.85;100601.72;4303346;33;20027;-87
2022/02/24 10:05:48;;;;;;;;;;;;;;;12.11;59.85;100606.91;4303021;33;20012;-88
2022/02/24 10:08:13;;;;;;;;;;;;;;;12.31;59.87;100605.53;4304010;33;21297;-88
2022/02/24 10:10:38;;;;;;;;;;;;;;;12.22;59.86;100596.16;4304015;33;20716;-87
2022/02/24 10:13:04;;;;;;;;;;;;;;;12.28;59.86;100590.78;4291146;33;20025;-88
2022/02/24 10:15:29;;;;;;;;;;;;;;;12.36;59.87;100595.84;4304374;33;20016;-88
2022/02/24 10:18:04;;;;;;;;;;;;;;;12.21;59.87;100589.25;4290702;33;20255;-88
2022/02/24 10:20:46;;;;;;;;;;;;;;;12.65;59.88;100582.00;4304245;33;20003;-88
2022/02/24 10:23:11;;;;;;;;;;;;;;;12.59;59.89;100577.81;4291199;33;19988;-88
2022/02/24 10:25:46;;;;;;;;;;;;;;;12.87;59.91;100578.75;4302911;33;20342;-88
2022/02/24 10:28:50;;;;;;;;;;;;;;;12.90;59.90;100575.19;4290986;33;20008;-87
2022/02/24 10:31:19;;;;;;;;;;;;;;;13.06;59.91;100575.63;4258813;33;20286;-88
2022/02/24 10:34:04;;;;;;;;;;;;;;;13.11;59.90;100569.34;4246912;33;20040;-89
2022/02/24 10:36:31;;;;;;;;;;;;;;;13.28;59.92;100553.22;4285667;33;19988;-88
2022/02/24 10:39:10;;;;;;;;;;;;;;;13.46;59.93;100565.69;4291010;33;19997;-88
2022/02/24 10:41:35;;;;;;;;;;;;;;;13.33;59.92;100556.53;4304301;33;20004;-88
2022/02/24 10:44:14;;;;;;;;;;;;;;;13.56;59.93;100552.34;4290858;33;19981;-88
2022/02/24 10:46:39;;;;;;;;;;;;;;;13.57;59.93;100554.06;4290869;33;19989;-88
2022/02/24 10:49:04;;;;;;;;;;;;;;;13.60;59.94;100546.13;4290802;33;20015;-88
2022/02/24 10:51:31;;;;;;;;;;;;;;;13.70;59.94;100543.13;4304267;33;19985;-87
2022/02/24 10:54:06;;;;;;;;;;;;;;;13.85;59.95;100533.94;4290930;33;20018;-88
2022/02/24 10:56:32;;;;;;;;;;;;;;;14.00;59.96;100527.38;4290788;33;19984;-88
2022/02/24 10:58:57;;;;;;;;;;;;;;;14.03;59.97;100527.25;4290839;33;19988;-88
2022/02/24 11:01:26;;;;;;;;;;;;;;;13.80;59.96;100515.78;4303438;33;20004;-89
2022/02/24 11:04:01;;;;;;;;;;;;;;;13.75;59.95;100509.84;4290755;33;20311;-88
2022/02/24 11:06:27;;;;;;;;;;;;;;;13.98;59.96;100505.63;4304059;33;19973;-89
2022/02/24 11:08:53;;;;;;;;;;;;;;;14.08;59.96;100500.00;4290715;33;19996;-89
2022/02/24 11:11:19;;;;;;;;;;;;;;;14.16;59.97;100496.25;4290523;33;20007;-87
2022/02/24 11:13:45;;;;;;;;;;;;;;;14.09;59.97;100483.38;4290699;33;19999;-88
2022/02/24 11:16:10;;;;;;;;;;;;;;;14.06;59.96;100482.66;4290597;33;20373;-87
2022/02/24 11:18:35;;;;;;;;;;;;;;;13.95;59.96;100480.38;4290664;33;20487;-88
2022/02/24 11:21:00;;;;;;;;;;;;;;;13.91;59.96;100468.31;4290072;33;20040;-87
2022/02/24 11:23:26;;;;;;;;;;;;;;;14.10;59.97;100471.16;4290757;33;20018;-88
2022/02/24 11:26:01;;;;;;;;;;;;;;;14.23;59.97;100467.22;4290655;33;20000;-88
2022/02/24 11:28:27;;;;;;;;;;;;;;;14.43;59.99;100463.87;4304060;33;20044;-88
2022/02/24 11:30:54;;;;;;;;;;;;;;;14.56;59.99;100453.81;4290604;33;20048;-88
2022/02/24 11:33:19;;;;;;;;;;;;;;;14.58;60.00;100455.47;4290617;33;20325;-88
2022/02/24 11:35:45;;;;;;;;;;;;;;;14.63;60.00;100448.28;4302581;33;19992;-87
2022/02/24 11:38:13;;;;;;;;;;;;;;;14.68;60.00;100445.50;4290600;33;19988;-88
2022/02/24 11:40:38;;;;;;;;;;;;;;;14.84;60.00;100440.53;4302535;33;20023;-88
2022/02/24 11:43:04;;;;;;;;;;;;;;;14.78;60.01;100431.13;4290315;33;20036;-88
2022/02/24 11:45:35;;;;;;;;;;;;;;;14.78;60.00;100430.28;4303898;33;20002;-88
2022/02/24 11:48:07;;;;;;;;;;;;;;;14.83;60.01;100429.19;4290395;33;19995;-88
2022/02/24 11:50:37;;;;;;;;;;;;;;;14.91;60.01;100411.41;4314435;33;20052;-87
2022/02/24 11:53:03;;;;;;;;;;;;;;;15.00;60.02;100407.56;4303648;33;19980;-89
2022/02/24 11:55:41;;;;;;;;;;;;;;;14.91;60.01;100410.56;4290496;33;19992;-88
2022/02/24 11:58:21;;;;;;;;;;;;;;;14.91;60.02;100400.06;4303820;33;20004;-87
2022/02/24 12:01:19;;;;;;;;;;;;;;;14.84;60.00;100402.06;4303715;33;19992;-89
2022/02/24 12:03:44;;;;;;;;;;;;;;;14.84;60.01;100399.44;4278828;33;19987;-88
2022/02/24 12:06:10;;;;;;;;;;;;;;;15.04;60.02;100393.41;4303969;33;20006;-88
2022/02/24 12:08:54;;;;;;;;;;;;;;;15.01;60.02;100381.28;4290463;33;20000;-87
2022/02/24 12:11:29;;;;;;;;;;;;;;;14.87;60.02;100380.97;4303544;33;19988;-88
2022/02/24 12:13:54;;;;;;;;;;;;;;;15.01;60.02;100369.94;4290277;33;20447;-89
2022/02/24 12:16:20;;;;;;;;;;;;;;;15.05;60.02;100376.78;4290540;33;20032;-87
2022/02/24 12:18:45;;;;;;;;;;;;;;;15.03;60.02;100361.09;4303788;33;19985;-88
2022/02/24 12:21:26;;;;;;;;;;;;;;;15.15;60.03;100359.75;4290468;33;20018;-87
2022/02/24 12:23:51;;;;;;;;;;;;;;;14.85;60.01;100351.34;4303479;33;20415;-87
2022/02/24 12:26:18;;;;;;;;;;;;;;;14.60;60.00;100351.47;4289640;33;30547;-87
2022/02/24 12:28:43;;;;;;;;;;;;;;;14.38;59.98;100338.31;4290243;33;19984;-87
2022/02/24 12:31:18;;;;;;;;;;;;;;;14.61;60.00;100339.22;4303421;33;20007;-88
2022/02/24 12:33:43;;;;;;;;;;;;;;;14.78;60.00;100338.56;4289887;33;19988;-88
2022/02/24 12:36:08;;;;;;;;;;;;;;;14.91;60.01;100327.53;4303453;33;20000;-88
2022/02/24 12:38:33;;;;;;;;;;;;;;;14.98;60.02;100331.59;4290188;33;19999;-87
2022/02/24 12:40:59;;;;;;;;;;;;;;;15.20;60.03;100325.47;4290224;33;20012;-88